sensor_id;sensor_type;location;lat;lon;timestamp;pressure;altitude;pressure_sealevel;temperature;humidity
75157;BME280;63736;50.076;8.198;2023-04-25T00:00:14;98868.06;;;7.81;100.00
75157;BME280;63736;50.076;8.198;2023-04-25T00:02:39;98872.28;;;7.84;100.00
75157;BME280;63736;50.076;8.198;2023-04-25T00:05:05;98875.53;;;7.87;100.00
75157;BME280;63736;50.076;8.198;2023-04-25T00:07:30;98863.81;;;7.90;100.00
75157;BME280;63736;50.076;8.198;2023-04-25T00:09:57;98868.72;;;7.94;100.00
75157;BME280;63736;50.076;8.198;2023-04-25T00:12:23;98869.44;;;7.97;100.00
75157;BME280;63736;50.076;8.198;2023-04-25T00:14:48;98874.63;;;7.98;100.00
75157;BME280;63736;50.076;8.198;2023-04-25T00:17:15;98872.56;;;8.02;100.00
75157;BME280;63736;50.076;8.198;2023-04-25T00:19:41;98875.09;;;8.03;100.00
75157;BME280;63736;50.076;8.198;2023-04-25T00:22:07;98870.50;;;8.05;100.00
75157;BME280;63736;50.076;8.198;2023-04-25T00:24:32;98873.84;;;8.07;100.00
75157;BME280;63736;50.076;8.198;2023-04-25T00:26:58;98873.03;;;8.07;100.00
75157;BME280;63736;50.076;8.198;2023-04-25T00:29:23;98873.16;;;8.05;100.00
75157;BME280;63736;50.076;8.198;2023-04-25T00:31:48;98879.19;;;8.07;100.00
75157;BME280;63736;50.076;8.198;2023-04-25T00:34:14;98880.03;;;8.08;100.00
75157;BME280;63736;50.076;8.198;2023-04-25T00:36:39;98884.41;;;8.09;100.00
75157;BME280;63736;50.076;8.198;2023-04-25T00:39:04;98874.59;;;8.09;100.00
75157;BME280;63736;50.076;8.198;2023-04-25T00:41:30;98870.97;;;8.10;100.00
75157;BME280;63736;50.076;8.198;2023-04-25T00:43:55;98867.44;;;8.10;100.00
75157;BME280;63736;50.076;8.198;2023-04-25T00:46:21;98854.28;;;8.08;100.00
75157;BME280;63736;50.076;8.198;2023-04-25T00:48:47;98856.09;;;8.08;100.00
75157;BME280;63736;50.076;8.198;2023-04-25T00:51:20;98853.44;;;8.08;100.00
75157;BME280;63736;50.076;8.198;2023-04-25T00:53:47;98856.25;;;8.06;100.00
75157;BME280;63736;50.076;8.198;2023-04-25T00:56:14;98858.03;;;8.06;100.00
75157;BME280;63736;50.076;8.198;2023-04-25T00:58:40;98861.41;;;8.08;100.00
75157;BME280;63736;50.076;8.198;2023-04-25T01:01:06;98854.41;;;8.07;100.00
75157;BME280;63736;50.076;8.198;2023-04-25T01:03:33;98856.25;;;8.06;100.00
75157;BME280;63736;50.076;8.198;2023-04-25T01:06:01;98853.56;;;8.06;100.00
75157;BME280;63736;50.076;8.198;2023-04-25T01:08:26;98852.84;;;8.04;100.00
75157;BME280;63736;50.076;8.198;2023-04-25T01:10:52;98849.47;;;8.02;100.00
75157;BME280;63736;50.076;8.198;2023-04-25T01:13:17;98840.94;;;7.99;100.00
75157;BME280;63736;50.076;8.198;2023-04-25T01:15:42;98848.91;;;7.99;100.00
75157;BME280;63736;50.076;8.198;2023-04-25T01:18:09;98858.69;;;7.98;100.00
75157;BME280;63736;50.076;8.198;2023-04-25T01:20:37;98852.66;;;7.96;100.00
75157;BME280;63736;50.076;8.198;2023-04-25T01:23:03;98856.44;;;7.93;100.00
75157;BME280;63736;50.076;8.198;2023-04-25T01:25:30;98859.31;;;7.90;100.00
75157;BME280;63736;50.076;8.198;2023-04-25T01:27:56;98855.00;;;7.89;100.00
75157;BME280;63736;50.076;8.198;2023-04-25T01:30:21;98852.56;;;7.86;100.00
75157;BME280;63736;50.076;8.198;2023-04-25T01:32:47;98858.03;;;7.85;100.00
75157;BME280;63736;50.076;8.198;2023-04-25T01:35:13;98849.47;;;7.81;100.00
75157;BME280;63736;50.076;8.198;2023-04-25T01:37:42;98854.91;;;7.80;100.00
75157;BME280;63736;50.076;8.198;2023-04-25T01:40:09;98860.59;;;7.75;100.00
75157;BME280;63736;50.076;8.198;2023-04-25T01:42:37;98851.06;;;7.72;100.00
75157;BME280;63736;50.076;8.198;2023-04-25T01:45:02;98857.47;;;7.70;100.00
75157;BME280;63736;50.076;8.198;2023-04-25T01:47:28;98855.91;;;7.67;100.00
75157;BME280;63736;50.076;8.198;2023-04-25T01:49:54;98865.13;;;7.63;100.00
75157;BME280;63736;50.076;8.198;2023-04-25T01:52:19;98853.91;;;7.59;100.00
75157;BME280;63736;50.076;8.198;2023-04-25T01:54:44;98864.66;;;7.58;100.00
75157;BME280;63736;50.076;8.198;2023-04-25T01:57:11;98869.41;;;7.54;100.00
75157;BME280;63736;50.076;8.198;2023-04-25T01:59:36;98861.66;;;7.51;100.00
75157;BME280;63736;50.076;8.198;2023-04-25T02:02:01;98855.63;;;7.49;100.00
75157;BME280;63736;50.076;8.198;2023-04-25T02:04:29;98859.41;;;7.47;100.00
75157;BME280;63736;50.076;8.198;2023-04-25T02:06:54;98849.00;;;7.43;100.00
75157;BME280;63736;50.076;8.198;2023-04-25T02:09:20;98855.41;;;7.41;100.00
75157;BME280;63736;50.076;8.198;2023-04-25T02:11:45;98850.47;;;7.36;100.00
75157;BME280;63736;50.076;8.198;2023-04-25T02:14:10;98855.06;;;7.34;100.00
75157;BME280;63736;50.076;8.198;2023-04-25T02:16:35;98863.28;;;7.31;100.00
75157;BME280;63736;50.076;8.198;2023-04-25T02:19:01;98863.44;;;7.30;100.00
75157;BME280;63736;50.076;8.198;2023-04-25T02:21:26;98853.91;;;7.27;100.00
75157;BME280;63736;50.076;8.198;2023-04-25T02:23:52;98856.66;;;7.25;100.00
75157;BME280;63736;50.076;8.198;2023-04-25T02:26:17;98861.25;;;7.23;100.00
75157;BME280;63736;50.076;8.198;2023-04-25T02:28:43;98859.44;;;7.24;100.00
75157;BME280;63736;50.076;8.198;2023-04-25T02:31:08;98850.63;;;7.23;100.00
75157;BME280;63736;50.076;8.198;2023-04-25T02:33:33;98856.06;;;7.22;100.00
75157;BME280;63736;50.076;8.198;2023-04-25T02:35:59;98852.56;;;7.21;100.00
75157;BME280;63736;50.076;8.198;2023-04-25T02:38:24;98867.66;;;7.21;100.00
75157;BME280;63736;50.076;8.198;2023-04-25T02:40:50;98846.41;;;7.21;100.00
75157;BME280;63736;50.076;8.198;2023-04-25T02:43:15;98852.69;;;7.20;100.00
75157;BME280;63736;50.076;8.198;2023-04-25T02:45:41;98851.00;;;7.19;100.00
75157;BME280;63736;50.076;8.198;2023-04-25T02:48:06;98852.94;;;7.17;100.00
75157;BME280;63736;50.076;8.198;2023-04-25T02:50:31;98854.75;;;7.16;100.00
75157;BME280;63736;50.076;8.198;2023-04-25T02:52:56;98861.16;;;7.14;100.00
75157;BME280;63736;50.076;8.198;2023-04-25T02:55:22;98855.97;;;7.12;100.00
75157;BME280;63736;50.076;8.198;2023-04-25T02:57:47;98864.06;;;7.10;100.00
75157;BME280;63736;50.076;8.198;2023-04-25T03:00:13;98862.50;;;7.08;100.00
75157;BME280;63736;50.076;8.198;2023-04-25T03:02:39;98855.63;;;7.05;100.00
75157;BME280;63736;50.076;8.198;2023-04-25T03:05:05;98863.72;;;7.04;100.00
75157;BME280;63736;50.076;8.198;2023-04-25T03:07:31;98862.72;;;7.05;100.00
75157;BME280;63736;50.076;8.198;2023-04-25T03:09:56;98855.75;;;7.04;100.00
75157;BME280;63736;50.076;8.198;2023-04-25T03:12:21;98851.13;;;7.06;100.00
75157;BME280;63736;50.076;8.198;2023-04-25T03:14:47;98851.13;;;7.06;100.00
75157;BME280;63736;50.076;8.198;2023-04-25T03:17:12;98864.53;;;7.04;100.00
75157;BME280;63736;50.076;8.198;2023-04-25T03:19:37;98869.84;;;7.04;100.00
75157;BME280;63736;50.076;8.198;2023-04-25T03:22:03;98862.16;;;7.01;100.00
75157;BME280;63736;50.076;8.198;2023-04-25T03:24:28;98856.22;;;6.98;100.00
75157;BME280;63736;50.076;8.198;2023-04-25T03:26:53;98853.81;;;6.94;100.00
75157;BME280;63736;50.076;8.198;2023-04-25T03:29:18;98853.22;;;6.91;100.00
75157;BME280;63736;50.076;8.198;2023-04-25T03:31:44;98846.69;;;6.84;100.00
75157;BME280;63736;50.076;8.198;2023-04-25T03:34:10;98843.94;;;6.74;100.00
75157;BME280;63736;50.076;8.198;2023-04-25T03:36:35;98849.97;;;6.65;100.00
75157;BME280;63736;50.076;8.198;2023-04-25T03:39:01;98845.50;;;6.54;100.00
75157;BME280;63736;50.076;8.198;2023-04-25T03:41:26;98845.38;;;6.44;100.00
75157;BME280;63736;50.076;8.198;2023-04-25T03:43:51;98858.63;;;6.33;100.00
75157;BME280;63736;50.076;8.198;2023-04-25T03:46:17;98857.53;;;6.24;100.00
75157;BME280;63736;50.076;8.198;2023-04-25T03:48:42;98860.63;;;6.18;100.00
75157;BME280;63736;50.076;8.198;2023-04-25T03:51:07;98858.59;;;6.10;100.00
75157;BME280;63736;50.076;8.198;2023-04-25T03:53:32;98862.53;;;6.04;100.00
75157;BME280;63736;50.076;8.198;2023-04-25T03:55:58;98870.75;;;6.01;100.00
75157;BME280;63736;50.076;8.198;2023-04-25T03:58:23;98875.63;;;5.94;100.00
75157;BME280;63736;50.076;8.198;2023-04-25T04:00:49;98874.28;;;5.89;100.00
75157;BME280;63736;50.076;8.198;2023-04-25T04:03:14;98879.81;;;5.86;100.00
75157;BME280;63736;50.076;8.198;2023-04-25T04:05:40;98884.38;;;5.84;100.00
75157;BME280;63736;50.076;8.198;2023-04-25T04:08:06;98892.31;;;5.84;100.00
75157;BME280;63736;50.076;8.198;2023-04-25T04:10:31;98887.03;;;5.84;100.00
75157;BME280;63736;50.076;8.198;2023-04-25T04:12:56;98892.00;;;5.88;100.00
75157;BME280;63736;50.076;8.198;2023-04-25T04:15:22;98895.34;;;5.90;100.00
75157;BME280;63736;50.076;8.198;2023-04-25T04:17:48;98897.78;;;5.93;100.00
75157;BME280;63736;50.076;8.198;2023-04-25T04:20:14;98898.50;;;5.95;100.00
75157;BME280;63736;50.076;8.198;2023-04-25T04:22:39;98903.63;;;5.99;100.00
75157;BME280;63736;50.076;8.198;2023-04-25T04:25:05;98899.16;;;5.99;100.00
75157;BME280;63736;50.076;8.198;2023-04-25T04:27:31;98912.28;;;6.01;100.00
75157;BME280;63736;50.076;8.198;2023-04-25T04:29:57;98904.34;;;6.01;100.00
75157;BME280;63736;50.076;8.198;2023-04-25T04:32:23;98920.16;;;6.02;100.00
75157;BME280;63736;50.076;8.198;2023-04-25T04:34:48;98916.53;;;6.03;100.00
75157;BME280;63736;50.076;8.198;2023-04-25T04:37:14;98912.91;;;6.04;100.00
75157;BME280;63736;50.076;8.198;2023-04-25T04:39:40;98918.84;;;6.08;100.00
75157;BME280;63736;50.076;8.198;2023-04-25T04:42:05;98924.97;;;6.08;100.00
75157;BME280;63736;50.076;8.198;2023-04-25T04:44:31;98915.34;;;6.07;100.00
75157;BME280;63736;50.076;8.198;2023-04-25T04:47:00;98909.44;;;6.04;100.00
75157;BME280;63736;50.076;8.198;2023-04-25T04:49:25;98920.03;;;6.04;100.00
75157;BME280;63736;50.076;8.198;2023-04-25T04:51:51;98914.13;;;6.00;100.00
75157;BME280;63736;50.076;8.198;2023-04-25T04:54:17;98921.13;;;6.01;100.00
75157;BME280;63736;50.076;8.198;2023-04-25T04:56:42;98907.00;;;6.01;100.00
75157;BME280;63736;50.076;8.198;2023-04-25T04:59:08;98923.75;;;6.01;100.00
75157;BME280;63736;50.076;8.198;2023-04-25T05:01:33;98922.56;;;6.05;100.00
75157;BME280;63736;50.076;8.198;2023-04-25T05:04:02;98931.97;;;6.09;100.00
75157;BME280;63736;50.076;8.198;2023-04-25T05:06:28;98930.78;;;6.14;100.00
75157;BME280;63736;50.076;8.198;2023-04-25T05:08:57;98937.66;;;6.16;100.00
75157;BME280;63736;50.076;8.198;2023-04-25T05:11:23;98941.69;;;6.22;100.00
75157;BME280;63736;50.076;8.198;2023-04-25T05:13:50;98931.56;;;6.27;100.00
75157;BME280;63736;50.076;8.198;2023-04-25T05:16:16;98941.47;;;6.36;100.00
75157;BME280;63736;50.076;8.198;2023-04-25T05:18:41;98946.91;;;6.46;100.00
75157;BME280;63736;50.076;8.198;2023-04-25T05:21:07;98950.34;;;6.59;100.00
75157;BME280;63736;50.076;8.198;2023-04-25T05:23:32;98951.41;;;6.68;100.00
75157;BME280;63736;50.076;8.198;2023-04-25T05:25:58;98946.47;;;6.75;100.00
75157;BME280;63736;50.076;8.198;2023-04-25T05:28:23;98943.47;;;6.80;100.00
75157;BME280;63736;50.076;8.198;2023-04-25T05:30:48;98940.22;;;6.87;100.00
75157;BME280;63736;50.076;8.198;2023-04-25T05:33:14;98946.03;;;6.92;100.00
75157;BME280;63736;50.076;8.198;2023-04-25T05:35:39;98955.22;;;7.00;100.00
75157;BME280;63736;50.076;8.198;2023-04-25T05:38:05;98950.59;;;7.02;100.00
75157;BME280;63736;50.076;8.198;2023-04-25T05:40:30;98948.31;;;7.08;100.00
75157;BME280;63736;50.076;8.198;2023-04-25T05:42:55;98945.31;;;7.13;100.00
75157;BME280;63736;50.076;8.198;2023-04-25T05:45:20;98941.66;;;7.25;100.00
75157;BME280;63736;50.076;8.198;2023-04-25T05:47:46;98952.41;;;7.35;100.00
75157;BME280;63736;50.076;8.198;2023-04-25T05:50:11;98951.78;;;7.43;100.00
75157;BME280;63736;50.076;8.198;2023-04-25T05:52:36;98949.34;;;7.51;100.00
75157;BME280;63736;50.076;8.198;2023-04-25T05:55:02;98955.00;;;7.69;100.00
75157;BME280;63736;50.076;8.198;2023-04-25T05:57:27;98952.50;;;8.00;100.00
75157;BME280;63736;50.076;8.198;2023-04-25T05:59:53;98962.84;;;8.36;100.00
75157;BME280;63736;50.076;8.198;2023-04-25T06:02:20;98965.03;;;8.63;100.00
75157;BME280;63736;50.076;8.198;2023-04-25T06:04:46;98962.41;;;8.94;100.00
75157;BME280;63736;50.076;8.198;2023-04-25T06:07:11;98960.44;;;9.27;100.00
75157;BME280;63736;50.076;8.198;2023-04-25T06:09:38;98965.56;;;9.50;100.00
75157;BME280;63736;50.076;8.198;2023-04-25T06:12:05;98966.44;;;9.60;100.00
75157;BME280;63736;50.076;8.198;2023-04-25T06:14:30;98968.84;;;9.63;100.00
75157;BME280;63736;50.076;8.198;2023-04-25T06:16:55;98962.25;;;9.67;100.00
75157;BME280;63736;50.076;8.198;2023-04-25T06:19:20;98962.09;;;9.59;100.00
75157;BME280;63736;50.076;8.198;2023-04-25T06:21:46;98963.88;;;9.49;100.00
75157;BME280;63736;50.076;8.198;2023-04-25T06:24:11;98958.13;;;9.43;100.00
75157;BME280;63736;50.076;8.198;2023-04-25T06:26:36;98970.19;;;9.38;100.00
75157;BME280;63736;50.076;8.198;2023-04-25T06:29:02;98970.44;;;9.35;100.00
75157;BME280;63736;50.076;8.198;2023-04-25T06:31:27;98980.53;;;9.31;100.00
75157;BME280;63736;50.076;8.198;2023-04-25T06:33:54;98979.44;;;9.34;100.00
75157;BME280;63736;50.076;8.198;2023-04-25T06:36:20;98980.56;;;9.41;100.00
75157;BME280;63736;50.076;8.198;2023-04-25T06:38:50;98982.31;;;9.62;100.00
75157;BME280;63736;50.076;8.198;2023-04-25T06:41:15;98979.13;;;9.87;100.00
75157;BME280;63736;50.076;8.198;2023-04-25T06:43:41;98977.34;;;10.27;100.00
75157;BME280;63736;50.076;8.198;2023-04-25T06:46:06;98981.03;;;11.13;100.00
75157;BME280;63736;50.076;8.198;2023-04-25T06:48:31;98973.09;;;12.40;95.84
75157;BME280;63736;50.076;8.198;2023-04-25T06:50:56;98978.75;;;13.61;81.59
75157;BME280;63736;50.076;8.198;2023-04-25T06:53:22;98971.34;;;14.63;74.64
75157;BME280;63736;50.076;8.198;2023-04-25T06:55:47;98980.91;;;15.63;66.57
75157;BME280;63736;50.076;8.198;2023-04-25T06:58:12;98967.69;;;15.77;60.30
75157;BME280;63736;50.076;8.198;2023-04-25T07:00:37;98985.28;;;15.56;58.44
75157;BME280;63736;50.076;8.198;2023-04-25T07:03:03;98985.81;;;14.70;54.46
75157;BME280;63736;50.076;8.198;2023-04-25T07:05:28;99006.72;;;14.01;58.82
75157;BME280;63736;50.076;8.198;2023-04-25T07:07:53;98991.31;;;14.28;59.24
75157;BME280;63736;50.076;8.198;2023-04-25T07:10:19;98997.91;;;14.91;54.73
75157;BME280;63736;50.076;8.198;2023-04-25T07:12:44;98995.22;;;14.91;54.00
75157;BME280;63736;50.076;8.198;2023-04-25T07:15:09;98991.38;;;14.69;53.73
75157;BME280;63736;50.076;8.198;2023-04-25T07:17:36;98996.22;;;14.57;55.87
75157;BME280;63736;50.076;8.198;2023-04-25T07:20:02;98998.19;;;14.14;55.60
75157;BME280;63736;50.076;8.198;2023-04-25T07:22:28;98993.84;;;13.62;58.38
75157;BME280;63736;50.076;8.198;2023-04-25T07:24:54;99001.84;;;13.27;59.54
75157;BME280;63736;50.076;8.198;2023-04-25T07:27:20;98993.25;;;12.89;60.51
75157;BME280;63736;50.076;8.198;2023-04-25T07:29:45;98994.88;;;12.64;61.87
75157;BME280;63736;50.076;8.198;2023-04-25T07:32:11;99003.69;;;12.56;62.99
75157;BME280;63736;50.076;8.198;2023-04-25T07:34:38;99001.81;;;12.30;62.43
75157;BME280;63736;50.076;8.198;2023-04-25T07:37:04;99008.09;;;11.93;62.75
75157;BME280;63736;50.076;8.198;2023-04-25T07:39:30;99011.97;;;11.53;64.38
75157;BME280;63736;50.076;8.198;2023-04-25T07:41:55;99012.44;;;11.38;65.88
75157;BME280;63736;50.076;8.198;2023-04-25T07:44:21;99015.38;;;11.45;66.01
75157;BME280;63736;50.076;8.198;2023-04-25T07:46:46;99010.19;;;11.34;65.22
75157;BME280;63736;50.076;8.198;2023-04-25T07:49:11;99030.19;;;11.39;63.54
75157;BME280;63736;50.076;8.198;2023-04-25T07:51:37;99023.94;;;11.11;65.93
75157;BME280;63736;50.076;8.198;2023-04-25T07:54:02;99021.09;;;11.22;66.82
75157;BME280;63736;50.076;8.198;2023-04-25T07:56:27;99031.13;;;11.48;65.63
75157;BME280;63736;50.076;8.198;2023-04-25T07:58:53;99034.06;;;11.55;63.73
75157;BME280;63736;50.076;8.198;2023-04-25T08:01:18;99036.44;;;11.58;63.29
75157;BME280;63736;50.076;8.198;2023-04-25T08:03:45;99032.59;;;11.70;63.80
75157;BME280;63736;50.076;8.198;2023-04-25T08:06:11;99027.63;;;11.76;64.26
75157;BME280;63736;50.076;8.198;2023-04-25T08:08:36;99027.19;;;12.08;62.58
75157;BME280;63736;50.076;8.198;2023-04-25T08:11:01;99041.47;;;12.45;61.24
75157;BME280;63736;50.076;8.198;2023-04-25T08:13:27;99042.88;;;12.75;57.12
75157;BME280;63736;50.076;8.198;2023-04-25T08:15:53;99045.53;;;13.37;55.56
75157;BME280;63736;50.076;8.198;2023-04-25T08:18:18;99042.72;;;14.49;51.54
75157;BME280;63736;50.076;8.198;2023-04-25T08:20:43;99038.00;;;15.90;47.97
75157;BME280;63736;50.076;8.198;2023-04-25T08:23:09;99037.09;;;17.22;46.21
75157;BME280;63736;50.076;8.198;2023-04-25T08:25:35;99045.31;;;16.67;43.05
75157;BME280;63736;50.076;8.198;2023-04-25T08:28:01;99059.94;;;15.79;45.88
75157;BME280;63736;50.076;8.198;2023-04-25T08:30:28;99069.16;;;14.87;46.90
75157;BME280;63736;50.076;8.198;2023-04-25T08:32:53;99075.00;;;13.98;48.51
75157;BME280;63736;50.076;8.198;2023-04-25T08:35:18;99081.97;;;13.04;52.47
75157;BME280;63736;50.076;8.198;2023-04-25T08:37:43;99086.84;;;12.46;54.25
75157;BME280;63736;50.076;8.198;2023-04-25T08:40:12;99092.97;;;12.11;54.84
75157;BME280;63736;50.076;8.198;2023-04-25T08:42:40;99087.03;;;12.35;56.54
75157;BME280;63736;50.076;8.198;2023-04-25T08:45:07;99086.31;;;13.23;55.38
75157;BME280;63736;50.076;8.198;2023-04-25T08:47:33;99088.88;;;14.28;50.62
75157;BME280;63736;50.076;8.198;2023-04-25T08:50:00;99097.81;;;14.53;49.71
75157;BME280;63736;50.076;8.198;2023-04-25T08:52:28;99096.22;;;15.18;48.49
75157;BME280;63736;50.076;8.198;2023-04-25T08:54:56;99094.63;;;15.65;46.44
75157;BME280;63736;50.076;8.198;2023-04-25T08:57:22;99096.84;;;15.53;47.04
75157;BME280;63736;50.076;8.198;2023-04-25T08:59:48;99101.59;;;15.35;45.83
75157;BME280;63736;50.076;8.198;2023-04-25T09:02:14;99107.09;;;14.59;45.58
75157;BME280;63736;50.076;8.198;2023-04-25T09:04:43;99109.75;;;14.51;47.09
75157;BME280;63736;50.076;8.198;2023-04-25T09:07:09;99115.22;;;14.92;47.61
75157;BME280;63736;50.076;8.198;2023-04-25T09:09:34;99115.41;;;14.91;46.66
75157;BME280;63736;50.076;8.198;2023-04-25T09:12:01;99126.50;;;14.28;47.39
75157;BME280;63736;50.076;8.198;2023-04-25T09:14:27;99120.88;;;14.13;48.79
75157;BME280;63736;50.076;8.198;2023-04-25T09:19:26;99125.53;;;14.03;48.89
75157;BME280;63736;50.076;8.198;2023-04-25T09:21:56;99128.25;;;14.54;48.58
75157;BME280;63736;50.076;8.198;2023-04-25T09:24:41;99127.84;;;15.16;47.63
75157;BME280;63736;50.076;8.198;2023-04-25T09:27:17;99136.75;;;15.09;45.59
75157;BME280;63736;50.076;8.198;2023-04-25T09:29:42;99134.66;;;14.69;46.33
75157;BME280;63736;50.076;8.198;2023-04-25T09:32:15;99141.06;;;14.68;46.68
75157;BME280;63736;50.076;8.198;2023-04-25T09:34:43;99150.78;;;14.69;45.71
75157;BME280;63736;50.076;8.198;2023-04-25T09:37:10;99145.84;;;14.05;45.21
75157;BME280;63736;50.076;8.198;2023-04-25T09:39:36;99149.53;;;13.44;46.63
75157;BME280;63736;50.076;8.198;2023-04-25T09:42:03;99156.72;;;13.25;48.57
75157;BME280;63736;50.076;8.198;2023-04-25T09:44:28;99159.88;;;13.02;50.16
75157;BME280;63736;50.076;8.198;2023-04-25T09:46:53;99174.59;;;12.80;50.45
75157;BME280;63736;50.076;8.198;2023-04-25T09:49:20;99166.53;;;12.62;51.03
75157;BME280;63736;50.076;8.198;2023-04-25T09:51:59;99171.81;;;12.54;52.23
75157;BME280;63736;50.076;8.198;2023-04-25T09:54:25;99173.50;;;12.55;53.54
75157;BME280;63736;50.076;8.198;2023-04-25T09:56:53;99169.94;;;12.82;53.19
75157;BME280;63736;50.076;8.198;2023-04-25T09:59:22;99168.31;;;13.26;49.10
75157;BME280;63736;50.076;8.198;2023-04-25T10:01:51;99163.41;;;13.39;48.88
75157;BME280;63736;50.076;8.198;2023-04-25T10:04:20;99160.00;;;13.55;49.11
75157;BME280;63736;50.076;8.198;2023-04-25T10:06:48;99159.84;;;13.57;49.67
75157;BME280;63736;50.076;8.198;2023-04-25T10:09:14;99167.66;;;13.50;50.59
75157;BME280;63736;50.076;8.198;2023-04-25T10:11:41;99170.34;;;13.50;50.86
75157;BME280;63736;50.076;8.198;2023-04-25T10:14:06;99168.59;;;13.22;49.24
75157;BME280;63736;50.076;8.198;2023-04-25T10:16:31;99185.63;;;12.95;50.30
75157;BME280;63736;50.076;8.198;2023-04-25T10:18:57;99193.91;;;12.84;50.45
75157;BME280;63736;50.076;8.198;2023-04-25T10:21:23;99192.88;;;12.67;49.85
75157;BME280;63736;50.076;8.198;2023-04-25T10:23:49;99188.16;;;12.51;49.47
75157;BME280;63736;50.076;8.198;2023-04-25T10:26:15;99197.97;;;12.42;49.90
75157;BME280;63736;50.076;8.198;2023-04-25T10:29:01;99197.50;;;12.19;49.48
75157;BME280;63736;50.076;8.198;2023-04-25T10:31:29;99197.84;;;11.96;50.72
75157;BME280;63736;50.076;8.198;2023-04-25T10:33:55;99197.66;;;11.60;50.25
75157;BME280;63736;50.076;8.198;2023-04-25T10:36:22;99199.34;;;11.41;50.73
75157;BME280;63736;50.076;8.198;2023-04-25T10:38:49;99206.97;;;11.27;51.65
75157;BME280;63736;50.076;8.198;2023-04-25T10:41:19;99194.72;;;11.14;52.35
75157;BME280;63736;50.076;8.198;2023-04-25T10:43:46;99196.13;;;11.18;52.73
75157;BME280;63736;50.076;8.198;2023-04-25T10:46:19;99204.13;;;11.18;52.75
75157;BME280;63736;50.076;8.198;2023-04-25T10:48:51;99203.03;;;11.31;51.67
75157;BME280;63736;50.076;8.198;2023-04-25T10:51:22;99210.19;;;11.20;50.91
75157;BME280;63736;50.076;8.198;2023-04-25T10:54:01;99216.38;;;11.21;52.08
75157;BME280;63736;50.076;8.198;2023-04-25T10:56:27;99220.63;;;11.14;51.73
75157;BME280;63736;50.076;8.198;2023-04-25T10:59:16;99213.28;;;11.26;52.07
75157;BME280;63736;50.076;8.198;2023-04-25T11:01:52;99209.06;;;11.52;52.13
75157;BME280;63736;50.076;8.198;2023-04-25T11:04:30;99210.38;;;11.86;51.95
75157;BME280;63736;50.076;8.198;2023-04-25T11:07:10;99207.16;;;12.02;51.46
75157;BME280;63736;50.076;8.198;2023-04-25T11:09:39;99210.34;;;12.05;50.59
75157;BME280;63736;50.076;8.198;2023-04-25T11:12:07;99212.44;;;12.21;50.05
75157;BME280;63736;50.076;8.198;2023-04-25T11:14:32;99214.91;;;12.33;50.35
75157;BME280;63736;50.076;8.198;2023-04-25T11:16:59;99226.81;;;12.48;50.47
75157;BME280;63736;50.076;8.198;2023-04-25T11:19:26;99229.22;;;12.51;49.78
75157;BME280;63736;50.076;8.198;2023-04-25T11:22:00;99222.47;;;12.47;49.44
75157;BME280;63736;50.076;8.198;2023-04-25T11:24:29;99228.09;;;12.44;48.55
75157;BME280;63736;50.076;8.198;2023-04-25T11:27:00;99212.84;;;12.17;48.96
75157;BME280;63736;50.076;8.198;2023-04-25T11:29:30;99225.56;;;12.15;49.89
75157;BME280;63736;50.076;8.198;2023-04-25T11:31:56;99233.00;;;12.21;49.74
75157;BME280;63736;50.076;8.198;2023-04-25T11:34:27;99229.09;;;12.05;48.54
75157;BME280;63736;50.076;8.198;2023-04-25T11:36:53;99237.03;;;11.87;48.98
75157;BME280;63736;50.076;8.198;2023-04-25T11:39:18;99240.84;;;11.85;49.46
75157;BME280;63736;50.076;8.198;2023-04-25T11:41:44;99234.25;;;11.69;49.89
75157;BME280;63736;50.076;8.198;2023-04-25T11:44:10;99234.94;;;11.71;50.76
75157;BME280;63736;50.076;8.198;2023-04-25T11:46:35;99236.34;;;11.66;51.36
75157;BME280;63736;50.076;8.198;2023-04-25T11:49:01;99243.56;;;11.65;51.52
75157;BME280;63736;50.076;8.198;2023-04-25T11:51:26;99244.09;;;11.79;51.42
75157;BME280;63736;50.076;8.198;2023-04-25T11:53:52;99241.81;;;11.84;50.16
75157;BME280;63736;50.076;8.198;2023-04-25T11:56:17;99242.78;;;11.93;49.90
75157;BME280;63736;50.076;8.198;2023-04-25T11:58:56;99236.00;;;12.08;49.34
75157;BME280;63736;50.076;8.198;2023-04-25T12:01:32;99240.84;;;12.32;48.77
75157;BME280;63736;50.076;8.198;2023-04-25T12:03:58;99242.06;;;12.48;47.20
75157;BME280;63736;50.076;8.198;2023-04-25T12:06:29;99235.88;;;12.65;46.96
75157;BME280;63736;50.076;8.198;2023-04-25T12:09:04;99226.09;;;13.02;47.11
75157;BME280;63736;50.076;8.198;2023-04-25T12:11:32;99225.03;;;13.49;45.59
75157;BME280;63736;50.076;8.198;2023-04-25T12:14:02;99204.03;;;13.70;44.62
75157;BME280;63736;50.076;8.198;2023-04-25T12:16:27;99194.59;;;13.84;44.55
75157;BME280;63736;50.076;8.198;2023-04-25T12:18:53;99215.63;;;13.97;44.36
75157;BME280;63736;50.076;8.198;2023-04-25T12:21:20;99220.25;;;14.13;42.94
75157;BME280;63736;50.076;8.198;2023-04-25T12:23:45;99216.16;;;14.35;43.02
75157;BME280;63736;50.076;8.198;2023-04-25T12:26:11;99225.59;;;14.40;43.44
75157;BME280;63736;50.076;8.198;2023-04-25T12:28:36;99230.16;;;14.47;43.08
75157;BME280;63736;50.076;8.198;2023-04-25T12:31:03;99238.44;;;13.93;41.62
75157;BME280;63736;50.076;8.198;2023-04-25T12:33:34;99244.09;;;13.46;42.61
75157;BME280;63736;50.076;8.198;2023-04-25T12:36:00;99255.66;;;13.10;43.15
75157;BME280;63736;50.076;8.198;2023-04-25T12:38:30;99259.25;;;12.73;43.26
75157;BME280;63736;50.076;8.198;2023-04-25T12:40:56;99269.88;;;12.65;44.47
75157;BME280;63736;50.076;8.198;2023-04-25T12:43:22;99265.59;;;12.54;45.17
75157;BME280;63736;50.076;8.198;2023-04-25T12:45:52;99270.31;;;12.32;44.08
75157;BME280;63736;50.076;8.198;2023-04-25T12:48:18;99276.50;;;11.95;45.64
75157;BME280;63736;50.076;8.198;2023-04-25T12:50:43;99272.81;;;11.77;46.27
75157;BME280;63736;50.076;8.198;2023-04-25T12:53:09;99274.66;;;11.76;46.45
75157;BME280;63736;50.076;8.198;2023-04-25T12:55:34;99274.91;;;11.83;46.72
75157;BME280;63736;50.076;8.198;2023-04-25T12:58:00;99275.47;;;11.96;47.07